createdAt,value
2018-10-19T00:00:39.485Z,24.13
2018-10-19T00:03:08.148Z,24.53
2018-10-19T00:05:36.746Z,23.60
2018-10-19T00:08:05.974Z,23.40
2018-10-19T00:10:45.467Z,24.80
2018-10-19T00:13:15.969Z,24.37
2018-10-19T00:15:44.629Z,24.20
2018-10-19T00:18:13.268Z,23.33
2018-10-19T00:20:42.021Z,23.90
2018-10-19T00:23:10.781Z,23.63
2018-10-19T00:25:39.379Z,24.40
2018-10-19T00:28:07.970Z,24.47
2018-10-19T00:30:36.554Z,23.93
2018-10-19T00:33:05.195Z,23.87
2018-10-19T00:35:33.768Z,24.30
2018-10-19T00:38:02.687Z,26.33
2018-10-19T00:40:31.341Z,28.00
2018-10-19T00:43:00.474Z,28.67
2018-10-19T00:45:34.741Z,28.87
2018-10-19T00:48:14.339Z,28.33
2018-10-19T00:50:43.297Z,28.47
2018-10-19T00:53:12.547Z,26.53
2018-10-19T00:55:41.268Z,27.83
2018-10-19T00:58:10.659Z,28.23
2018-10-19T01:00:40.374Z,28.43
2018-10-19T01:03:09.462Z,27.70
2018-10-19T01:05:38.961Z,27.63
2018-10-19T01:08:08.688Z,28.50
2018-10-19T01:10:37.353Z,29.60
2018-10-19T01:13:06.164Z,28.93
2018-10-19T01:15:34.808Z,28.70
2018-10-19T01:18:03.553Z,28.70
2018-10-19T01:20:32.125Z,29.43
2018-10-19T01:23:00.742Z,28.87
2018-10-19T01:25:29.336Z,26.93
2018-10-19T01:27:58.002Z,28.80
2018-10-19T01:30:26.676Z,29.03
2018-10-19T01:32:55.369Z,28.60
2018-10-19T01:35:23.985Z,27.67
2018-10-19T01:37:52.594Z,27.93
2018-10-19T01:40:21.188Z,26.30
2018-10-19T01:42:49.780Z,27.60
2018-10-19T01:45:18.448Z,25.93
2018-10-19T01:47:47.085Z,26.70
2018-10-19T01:50:15.673Z,27.30
2018-10-19T01:52:44.256Z,26.13
2018-10-19T01:55:12.835Z,26.23
2018-10-19T01:57:41.420Z,25.63
2018-10-19T02:00:10.103Z,28.00
2018-10-19T02:02:38.677Z,27.87
2018-10-19T02:05:07.505Z,26.00
2018-10-19T02:07:36.085Z,26.20
2018-10-19T02:10:05.788Z,27.80
2018-10-19T02:12:34.375Z,28.50
2018-10-19T02:15:03.076Z,29.07
2018-10-19T02:17:31.693Z,27.70
2018-10-19T02:20:00.313Z,27.67
2018-10-19T02:22:28.917Z,29.67
2018-10-19T02:24:57.539Z,28.77
2018-10-19T02:27:26.170Z,28.87
2018-10-19T02:29:54.739Z,30.10
2018-10-19T02:32:23.398Z,32.73
2018-10-19T02:34:51.997Z,31.10
2018-10-19T02:37:20.628Z,32.33
2018-10-19T02:39:49.241Z,32.73
2018-10-19T02:42:17.808Z,28.83
2018-10-19T02:44:46.453Z,28.90
2018-10-19T02:47:15.782Z,28.90
2018-10-19T02:49:44.296Z,28.40
2018-10-19T02:52:12.928Z,29.77
2018-10-19T02:54:41.565Z,29.77
2018-10-19T02:57:10.203Z,31.07
2018-10-19T02:59:38.811Z,30.67
2018-10-19T03:02:07.424Z,30.30
2018-10-19T03:04:36.034Z,29.50
2018-10-19T03:07:06.749Z,29.63
2018-10-19T03:09:35.366Z,30.47
2018-10-19T03:12:04.001Z,31.57
2018-10-19T03:14:32.592Z,33.20
2018-10-19T03:17:02.013Z,27.73
2018-10-19T03:19:30.704Z,28.40
2018-10-19T03:21:59.311Z,27.97
2018-10-19T03:24:27.956Z,27.60
2018-10-19T03:26:56.642Z,26.80
2018-10-19T03:29:26.176Z,26.70
2018-10-19T03:31:54.893Z,27.07
2018-10-19T03:34:23.493Z,27.00
2018-10-19T03:36:52.681Z,26.93
2018-10-19T03:39:21.289Z,25.70
2018-10-19T03:41:49.904Z,27.20
2018-10-19T03:44:18.510Z,28.43
2018-10-19T03:46:47.098Z,28.53
2018-10-19T03:49:15.810Z,28.07
2018-10-19T03:51:44.381Z,28.27
2018-10-19T03:54:13.048Z,27.10
2018-10-19T03:56:41.638Z,26.00
2018-10-19T03:59:10.332Z,27.57
2018-10-19T04:01:38.913Z,27.40
2018-10-19T04:04:07.518Z,28.03
2018-10-19T04:06:36.172Z,28.33
2018-10-19T04:09:07.898Z,28.47
2018-10-19T04:11:36.498Z,28.77
2018-10-19T04:14:05.797Z,28.17
2018-10-19T04:16:34.496Z,31.27
2018-10-19T04:19:03.253Z,29.87
2018-10-19T04:21:32.368Z,31.43
2018-10-19T04:24:01.184Z,31.80
2018-10-19T04:26:30.038Z,32.43
2018-10-19T04:28:58.814Z,32.83
2018-10-19T04:31:27.563Z,32.83
2018-10-19T04:33:56.357Z,30.60
2018-10-19T04:36:25.670Z,30.10
2018-10-19T04:38:54.427Z,29.73
2018-10-19T04:41:23.139Z,27.87
2018-10-19T04:43:51.831Z,27.67
2018-10-19T04:46:23.994Z,27.23
2018-10-19T04:48:52.783Z,28.07
2018-10-19T04:51:21.545Z,27.70
2018-10-19T04:53:50.402Z,27.57
2018-10-19T04:56:19.087Z,28.17
2018-10-19T04:58:53.322Z,29.47
2018-10-19T05:01:22.022Z,32.80
2018-10-19T05:03:51.116Z,29.40
2018-10-19T05:06:20.065Z,32.67
2018-10-19T05:08:49.150Z,31.17
2018-10-19T05:11:18.153Z,30.40
2018-10-19T05:13:46.999Z,32.93
2018-10-19T05:16:15.853Z,31.93
2018-10-19T05:18:44.579Z,31.37
2018-10-19T05:21:13.664Z,30.17
2018-10-19T05:23:42.381Z,29.47
2018-10-19T05:26:11.177Z,27.13
2018-10-19T05:28:40.374Z,29.03
2018-10-19T05:31:09.024Z,26.80
2018-10-19T05:33:39.497Z,27.00
2018-10-19T05:36:08.212Z,28.57
2018-10-19T05:38:36.975Z,27.67
2018-10-19T05:41:05.703Z,28.97
2018-10-19T05:43:34.525Z,29.53
2018-10-19T05:46:03.121Z,28.63
2018-10-19T05:48:31.818Z,27.10
2018-10-19T05:51:00.584Z,26.97
2018-10-19T05:53:29.297Z,26.87
2018-10-19T05:55:57.972Z,26.73
2018-10-19T05:58:26.709Z,25.27
2018-10-19T06:00:55.985Z,25.20
2018-10-19T06:03:24.697Z,24.07
2018-10-19T06:05:55.006Z,24.77
2018-10-19T06:08:23.712Z,23.83
2018-10-19T06:10:52.442Z,23.63
2018-10-19T06:13:21.124Z,24.40
2018-10-19T06:15:49.764Z,23.63
2018-10-19T06:18:18.516Z,20.90
2018-10-19T06:20:47.290Z,20.03
2018-10-19T06:23:16.066Z,20.10
2018-10-19T06:25:44.818Z,19.87
2018-10-19T06:28:13.438Z,21.90
2018-10-19T06:30:42.091Z,20.30
2018-10-19T06:33:10.866Z,18.93
2018-10-19T06:35:40.861Z,18.03
2018-10-19T06:38:09.511Z,18.53
2018-10-19T06:40:38.274Z,18.00
2018-10-19T06:43:06.913Z,17.57
2018-10-19T06:45:36.043Z,18.27
2018-10-19T06:48:05.213Z,17.87
2018-10-19T06:50:33.819Z,17.57
2018-10-19T06:53:02.929Z,17.70
2018-10-19T06:55:31.526Z,17.40
2018-10-19T06:58:00.284Z,16.77
2018-10-19T07:00:28.896Z,17.73
2018-10-19T07:02:57.788Z,17.00
2018-10-19T07:05:26.403Z,17.03
2018-10-19T07:07:54.972Z,17.40
2018-10-19T07:10:23.545Z,17.03
2018-10-19T07:12:52.176Z,17.33
2018-10-19T07:15:20.786Z,16.30
2018-10-19T07:17:49.313Z,17.60
2018-10-19T07:20:17.886Z,18.00
2018-10-19T07:22:46.458Z,17.17
2018-10-19T07:25:15.389Z,17.50
2018-10-19T07:27:43.959Z,17.43
2018-10-19T07:30:12.549Z,16.67
2018-10-19T07:32:41.204Z,17.37
2018-10-19T07:35:09.795Z,16.50
2018-10-19T07:37:38.557Z,16.87
2018-10-19T07:40:07.416Z,17.23
2018-10-19T07:42:36.021Z,17.40
2018-10-19T07:45:05.449Z,16.67
2018-10-19T07:47:34.107Z,17.27
2018-10-19T07:50:02.797Z,17.30
2018-10-19T07:52:31.376Z,17.30
2018-10-19T07:54:59.963Z,16.70
2018-10-19T07:57:28.537Z,16.37
2018-10-19T07:59:57.198Z,16.67
2018-10-19T08:02:25.732Z,16.97
2018-10-19T08:04:54.349Z,16.95
2018-10-19T08:07:22.855Z,15.68
2018-10-19T08:09:51.427Z,16.25
2018-10-19T08:12:20.039Z,16.45
2018-10-19T08:14:48.638Z,15.20
2018-10-19T08:17:17.301Z,15.80
2018-10-19T08:19:46.057Z,14.20
2018-10-19T08:22:14.663Z,12.50
2018-10-19T08:24:43.328Z,12.00
2018-10-19T08:27:11.982Z,11.97
2018-10-19T08:29:41.079Z,11.78
2018-10-19T08:32:09.825Z,12.05
2018-10-19T08:34:38.521Z,11.68
2018-10-19T08:37:07.117Z,11.65
2018-10-19T08:39:35.683Z,12.00
2018-10-19T08:42:04.884Z,10.95
2018-10-19T08:44:33.484Z,11.10
2018-10-19T08:47:02.126Z,11.90
2018-10-19T08:49:30.786Z,11.95
2018-10-19T08:51:59.611Z,11.97
2018-10-19T08:54:28.203Z,11.73
2018-10-19T08:56:56.846Z,12.18
2018-10-19T08:59:25.401Z,11.48
2018-10-19T09:01:54.058Z,11.53
2018-10-19T09:04:22.691Z,11.45
2018-10-19T09:06:51.281Z,11.73
2018-10-19T09:09:20.139Z,10.98
2018-10-19T09:11:48.784Z,11.05
2018-10-19T09:14:34.193Z,10.25
2018-10-19T09:17:02.881Z,12.07
2018-10-19T09:19:31.451Z,10.90
2018-10-19T09:22:00.108Z,11.28
2018-10-19T09:24:28.688Z,11.20
2018-10-19T09:26:57.368Z,10.45
2018-10-19T09:29:26.279Z,10.40
2018-10-19T09:31:54.921Z,10.55
2018-10-19T09:34:23.574Z,10.40
2018-10-19T09:36:52.296Z,10.28
2018-10-19T09:39:26.556Z,9.73
2018-10-19T09:41:55.271Z,9.75
2018-10-19T09:44:23.856Z,10.23
2018-10-19T09:46:52.424Z,9.78
2018-10-19T09:49:21.462Z,9.80
2018-10-19T09:51:49.996Z,10.08
2018-10-19T09:54:18.556Z,10.43
2018-10-19T09:56:47.081Z,9.48
2018-10-19T09:59:15.884Z,9.88
2018-10-19T10:01:44.415Z,9.98
2018-10-19T10:04:13.366Z,9.78
2018-10-19T10:06:47.666Z,9.70
2018-10-19T10:09:17.031Z,9.68
2018-10-19T10:11:45.661Z,9.28
2018-10-19T10:14:14.318Z,8.80
2018-10-19T10:16:42.911Z,9.13
2018-10-19T10:19:11.587Z,9.35
2018-10-19T10:21:45.579Z,9.28
2018-10-19T10:24:14.204Z,8.60
2018-10-19T10:26:42.891Z,8.05
2018-10-19T10:29:11.471Z,8.53
2018-10-19T10:31:40.009Z,8.80
2018-10-19T10:34:08.630Z,8.20
2018-10-19T10:36:37.169Z,7.90
2018-10-19T10:39:10.681Z,8.23
2018-10-19T10:41:39.271Z,8.00
2018-10-19T10:44:07.990Z,7.53
2018-10-19T10:46:36.718Z,7.90
2018-10-19T10:49:10.941Z,15.30
2018-10-19T10:51:39.471Z,8.68
2018-10-19T10:54:08.046Z,8.25
2018-10-19T10:56:36.623Z,6.60
2018-10-19T10:59:05.449Z,6.42
2018-10-19T11:01:33.990Z,6.72
2018-10-19T11:04:02.685Z,7.03
2018-10-19T11:06:31.348Z,6.83
2018-10-19T11:08:59.953Z,6.25
2018-10-19T11:11:28.573Z,6.45
2018-10-19T11:13:57.196Z,6.65
2018-10-19T11:16:25.833Z,6.30
2018-10-19T11:18:54.438Z,6.80
2018-10-19T11:21:23.009Z,6.47
2018-10-19T11:23:57.179Z,6.75
2018-10-19T11:26:25.775Z,5.87
2018-10-19T11:28:54.378Z,6.25
2018-10-19T11:31:23.001Z,6.55
2018-10-19T11:33:51.561Z,6.22
2018-10-19T11:36:20.179Z,7.05
2018-10-19T11:38:48.847Z,6.28
2018-10-19T11:41:17.545Z,6.47
2018-10-19T11:43:46.163Z,6.60
2018-10-19T11:46:14.901Z,6.30
2018-10-19T11:48:44.260Z,6.22
2018-10-19T11:51:12.874Z,6.70
2018-10-19T11:53:41.434Z,6.10
2018-10-19T11:56:10.041Z,6.20
2018-10-19T11:58:38.678Z,6.65
2018-10-19T12:01:07.220Z,6.12
2018-10-19T12:03:35.832Z,6.25
2018-10-19T12:06:04.621Z,6.20
2018-10-19T12:08:33.149Z,5.83
2018-10-19T12:11:01.679Z,6.25
2018-10-19T12:13:30.568Z,6.22
2018-10-19T12:15:59.178Z,6.33
2018-10-19T12:18:27.721Z,5.62
2018-10-19T12:20:56.283Z,6.97
2018-10-19T12:23:24.853Z,6.45
2018-10-19T12:25:58.835Z,6.40
2018-10-19T12:28:33.001Z,6.40
2018-10-19T12:31:01.684Z,6.20
2018-10-19T12:33:30.193Z,6.75
2018-10-19T12:35:58.753Z,6.22
2018-10-19T12:38:27.276Z,6.87
2018-10-19T12:40:55.803Z,6.97
2018-10-19T12:43:24.456Z,6.53
2018-10-19T12:46:36.343Z,5.90
2018-10-19T12:49:05.370Z,6.25
2018-10-19T12:51:34.388Z,6.50
2018-10-19T12:54:09.051Z,6.22
2018-10-19T12:56:37.609Z,6.03
2018-10-19T12:59:06.848Z,6.15
2018-10-19T13:01:35.395Z,6.55
2018-10-19T13:04:04.221Z,6.58
2018-10-19T13:06:32.836Z,6.60
2018-10-19T13:09:01.471Z,6.72
2018-10-19T13:11:29.999Z,6.22
2018-10-19T13:13:58.619Z,6.97
2018-10-19T13:16:27.192Z,7.40
2018-10-19T13:18:55.725Z,7.37
2018-10-19T13:21:24.295Z,6.80
2018-10-19T13:23:52.983Z,7.15
2018-10-19T13:26:22.244Z,6.53
2018-10-19T13:28:50.865Z,6.95
2018-10-19T13:31:20.235Z,7.00
2018-10-19T13:33:48.869Z,8.18
2018-10-19T13:36:17.524Z,7.95
2018-10-19T13:38:47.052Z,8.23
2018-10-19T13:41:15.714Z,7.90
2018-10-19T13:43:45.441Z,8.25
2018-10-19T13:46:14.028Z,7.85
2018-10-19T13:48:42.596Z,7.80
2018-10-19T13:51:11.358Z,7.75
2018-10-19T13:53:39.951Z,7.40
2018-10-19T13:56:08.556Z,7.72
2018-10-19T13:58:37.114Z,7.40
2018-10-19T14:01:06.770Z,7.25
2018-10-19T14:03:35.476Z,8.23
2018-10-19T14:06:04.084Z,7.40
2018-10-19T14:08:33.246Z,8.30
2018-10-19T14:11:01.893Z,7.65
2018-10-19T14:13:30.529Z,8.08
2018-10-19T14:15:59.077Z,7.55
2018-10-19T14:18:28.117Z,7.58
2018-10-19T14:20:56.724Z,7.08
2018-10-19T14:23:25.289Z,6.92
2018-10-19T14:25:53.891Z,7.83
2018-10-19T14:28:22.474Z,6.90
2018-10-19T14:30:52.063Z,6.62
2018-10-19T14:33:21.231Z,7.60
2018-10-19T14:35:49.676Z,7.10
2018-10-19T14:38:18.211Z,7.42
2018-10-19T14:40:46.811Z,7.55
2018-10-19T14:43:20.981Z,7.40
2018-10-19T14:45:50.581Z,7.17
2018-10-19T14:48:19.159Z,6.92
2018-10-19T14:50:47.846Z,7.12
2018-10-19T14:53:16.646Z,7.47
2018-10-19T14:55:45.169Z,7.05
2018-10-19T14:58:14.199Z,7.20
2018-10-19T15:00:42.823Z,6.83
2018-10-19T15:03:11.490Z,6.42
2018-10-19T15:05:40.010Z,6.12
2018-10-19T15:08:08.609Z,6.62
2018-10-19T15:10:38.358Z,6.60
2018-10-19T15:13:12.178Z,6.70
2018-10-19T15:15:40.758Z,7.10
2018-10-19T15:18:09.426Z,7.17
2018-10-19T15:20:38.057Z,7.05
2018-10-19T15:23:06.646Z,7.15
2018-10-19T15:25:35.279Z,7.75
2018-10-19T15:28:03.952Z,7.78
2018-10-19T15:30:32.538Z,7.87
2018-10-19T15:33:01.246Z,7.72
2018-10-19T15:35:29.815Z,7.28
2018-10-19T15:37:58.517Z,7.80
2018-10-19T15:40:27.078Z,8.25
2018-10-19T15:42:55.693Z,8.50
2018-10-19T15:45:24.390Z,7.87
2018-10-19T15:47:52.983Z,7.37
2018-10-19T15:50:21.615Z,7.87
2018-10-19T15:52:50.773Z,9.58
2018-10-19T15:55:19.315Z,14.65
2018-10-19T15:57:47.885Z,11.00
2018-10-19T16:00:25.736Z,11.88
2018-10-19T16:02:54.630Z,8.80
2018-10-19T16:05:23.348Z,8.87
2018-10-19T16:07:51.971Z,8.60
2018-10-19T16:13:21.233Z,8.60
2018-10-19T16:15:49.797Z,8.73
2018-10-19T16:18:26.668Z,8.70
2018-10-19T16:30:21.535Z,8.10
2018-10-19T16:35:50.153Z,8.38
2018-10-19T16:41:19.233Z,9.17
2018-10-19T16:55:53.787Z,11.53
2018-10-19T16:58:22.359Z,9.93
2018-10-19T17:03:58.652Z,10.47
2018-10-19T17:06:27.285Z,11.60
2018-10-19T17:14:55.716Z,12.43
2018-10-19T17:20:24.546Z,12.50
2018-10-19T17:32:11.056Z,63.03
2018-10-19T17:37:40.794Z,14.67
2018-10-19T17:40:25.529Z,63.37
2018-10-19T17:42:55.761Z,14.10
2018-10-19T17:48:24.598Z,15.23
2018-10-19T17:50:53.186Z,15.33
2018-10-19T17:53:28.289Z,18.80
2018-10-19T17:55:56.837Z,13.80
2018-10-19T17:58:26.644Z,14.87
2018-10-19T18:04:20.462Z,15.07
2018-10-19T18:09:49.317Z,14.63
2018-10-19T18:15:26.624Z,16.20
2018-10-19T18:17:55.251Z,16.37
2018-10-19T18:20:27.323Z,15.90
2018-10-19T18:29:16.264Z,21.77
2018-10-19T18:34:45.652Z,21.33
2018-10-19T18:43:14.589Z,21.47
2018-10-19T18:45:43.193Z,21.33
2018-10-19T18:57:29.121Z,22.63
2018-10-19T19:02:57.378Z,23.03
2018-10-19T19:11:26.103Z,23.50
2018-10-19T19:13:54.672Z,24.67
2018-10-19T19:16:28.610Z,25.60
2018-10-19T19:21:57.649Z,24.43
2018-10-19T19:24:38.141Z,26.97
2018-10-19T19:33:14.683Z,27.40
2018-10-19T19:51:27.291Z,30.63
2018-10-19T19:57:21.101Z,29.97
2018-10-19T20:00:02.051Z,30.67
2018-10-19T20:02:30.651Z,32.07
2018-10-19T20:04:59.216Z,32.30
2018-10-19T20:07:28.871Z,28.90
2018-10-19T20:12:57.301Z,31.80
2018-10-19T20:15:38.350Z,30.00
2018-10-19T20:18:06.980Z,31.70
2018-10-19T20:29:39.946Z,37.20
2018-10-19T20:32:25.219Z,36.77
2018-10-19T20:35:00.225Z,36.33
2018-10-19T20:37:28.907Z,36.60
2018-10-19T20:39:57.671Z,37.60
2018-10-19T20:48:26.761Z,37.57
2018-10-19T20:59:57.559Z,36.70
2018-10-19T21:11:40.192Z,39.23
2018-10-19T21:20:34.481Z,41.53
2018-10-19T21:26:24.097Z,41.00
2018-10-19T21:37:52.991Z,41.03
2018-10-19T21:40:21.635Z,42.23
2018-10-19T21:57:54.753Z,44.33
2018-10-19T22:00:28.961Z,44.17
2018-10-19T22:02:57.577Z,43.03
2018-10-19T22:05:26.428Z,41.63
2018-10-19T22:13:55.656Z,42.27
2018-10-19T22:19:24.218Z,40.47
2018-10-19T22:24:53.384Z,39.70
2018-10-19T22:27:47.175Z,40.20
2018-10-19T22:33:22.133Z,42.60
2018-10-19T22:47:51.483Z,41.53
2018-10-19T22:56:20.180Z,45.23
2018-10-19T22:59:14.144Z,42.53
2018-10-19T23:02:07.540Z,43.90
2018-10-19T23:16:39.161Z,42.63
2018-10-19T23:19:26.608Z,46.80
2018-10-19T23:40:09.003Z,48.40
2018-10-19T23:54:51.755Z,40.47
2018-10-19T23:57:21.326Z,38.57
